Columbus, MT

3:46 PM MDT on September 30, 2014 (GMT -0600)
Billings Logan International | Change Station
CLOSE
Current Station
Airport
Location: Billings,
Elevation: 3570 ft
Nearby Weather Stations

Elev 3570 ft 45.81 °N, 108.54 °W | Updated 53 minutes ago

Overcast
Overcast
63 °F
Feels Like 63 °F
N
16
Wind Variable Wind from WNW

Today
High -- | Low -- °F
--% Chance of Precip.
Yesterday
High -- | Low -- °F
Precip. -- in
7:14 AM 6:59 PM
Waxing Crescent, 40% visible
Pressure 29.65 in
Visibility 10.0 miles
Clouds Scattered Clouds 5000 ft
Mostly Cloudy 6500 ft
Overcast 11000 ft
Dew Point 42 °F
Humidity 46%
Rainfall 0.00 in
Snow Depth 0 in , 0 in , 0 in
UV 1 out of 12
Pollen 3.90 out of 12
Air Quality Not available.
Flu Activity Not available.
METAR KBIL 302053Z 30014KT 10SM SCT050 BKN065 OVC110 17/06 A2968 RMK AO2 SLP039 VIRGA SHRA DSNT S T01720056 58007

More Conditions Fewer Conditions

Pressure 29.65 in
Visibility 10.0 miles
Clouds Scattered Clouds 5000 ft
Mostly Cloudy 6500 ft
Overcast 11000 ft
Dew Point 42 °F
Humidity 46%
Rainfall 0.00 in
Snow Depth 0 in , 0 in , 0 in
UV 1 out of 12
Pollen 3.90 out of 12
Air Quality Not available.
Flu Activity Not available.
METAR KBIL 302053Z 30014KT 10SM SCT050 BKN065 OVC110 17/06 A2968 RMK AO2 SLP039 VIRGA SHRA DSNT S T01720056 58007

More Conditions Fewer Conditions

10-Day Weather Forecast

Almanac

Astronomy

Sep. 30, 2014 Rise Set
Actual Time 7:14 AM MDT 6:59 PM MDT
Civil Twilight 6:44 AM MDT 7:28 PM MDT
Nautical Twilight 6:10 AM MDT 8:02 PM MDT
Astronomical Twilight 5:34 AM MDT 8:37 PM MDT
Moon 1:38 PM MDT 11:18 PM MDT
Length of Visible Light 12h 44m
Length of Day
11h 44m
Tomorrow will be 3m 11s shorter.
Waxing Crescent, 40% of the Moon is Illuminated
Today
Waxing Crescent
Oct 1
First Quarter
Oct 8
Full
Oct 15
Last Quarter
Oct 23
New

Today's Extremes

State Highs State Lows

Community

WunderPhotos

Upload Photos

1,757,755 photos uploaded!

Nearby

Snow Depth

Station Depth Elevation
Noisy Basin 0 in 6040 ft
Carrot Basin 0 in 9000 ft
Divide 0 in 7800 ft
Stringer Creek 0 in 6550 ft
North Fork Jocko 0 in 6330 ft

Earthquake Activity

City Distance Mag. Time & Date
No recent earthquake activity has been reported nearby.
Minimum magnitude displayed is 2.5.

Coastal Water Temperatures

Place Temperature
No Stations Reporting

Nearby Weather Stations